Time;durP1;ratioP1;P1;durP2;ratioP2;P2;SDS_P1;SDS_P2;PMS_P1;PMS_P2;Temp;Humidity;BMP_temperature;BMP_pressure;BME280_temperature;BME280_humidity;BME280_pressure;Samples;Min_cycle;Max_cycle;Signal;HPM_P1;HPM_P2
2022/07/20 00:01:46;;;;;;;6.82;3.40;;;;;;;20.96;41.03;99820.03;10338691;28;20094;-82
2022/07/20 00:06:47;;;;;;;8.73;3.35;;;;;;;20.93;41.08;99822.16;10352173;28;20054;-81
2022/07/20 00:11:49;;;;;;;9.52;3.42;;;;;;;21.06;40.83;99830.53;10338612;28;20541;-81
2022/07/20 00:16:51;;;;;;;9.32;3.38;;;;;;;20.85;41.32;99824.78;10331880;28;20054;-81
2022/07/20 00:21:53;;;;;;;7.43;3.63;;;;;;;20.96;41.21;99829.84;10353150;28;20058;-81
2022/07/20 00:26:55;;;;;;;8.40;3.20;;;;;;;20.55;41.71;99825.28;10351438;28;20050;-81
2022/07/20 00:31:57;;;;;;;5.13;3.47;;;;;;;20.35;42.19;99824.66;10335484;28;20066;-81
2022/07/20 00:36:58;;;;;;;9.27;3.53;;;;;;;20.25;42.39;99822.09;10336215;28;20069;-81
2022/07/20 00:42:00;;;;;;;8.75;3.33;;;;;;;20.26;42.35;99825.59;10338306;28;20492;-81
2022/07/20 00:47:02;;;;;;;9.40;3.30;;;;;;;20.11;42.73;99816.53;10337052;28;20089;-80
2022/07/20 00:52:24;;;;;;;7.95;3.28;;;;;;;20.02;43.56;99822.75;10335435;28;20061;-81
2022/07/20 00:57:26;;;;;;;8.00;3.50;;;;;;;20.10;43.09;99822.81;10336746;28;20060;-81
2022/07/20 01:02:27;;;;;;;12.48;3.63;;;;;;;20.11;43.33;99816.53;10337988;28;20058;-81
2022/07/20 01:07:29;;;;;;;9.55;3.60;;;;;;;20.17;43.44;99815.91;10335786;28;20330;-80
2022/07/20 01:12:31;;;;;;;9.73;3.45;;;;;;;20.03;43.55;99803.22;10335817;28;20928;-81
2022/07/20 01:17:33;;;;;;;10.40;3.70;;;;;;;19.64;44.27;99807.16;10337014;28;20095;-81
2022/07/20 01:22:42;;;;;;;8.15;3.70;;;;;;;19.65;44.51;99814.13;10336379;28;20054;-81
2022/07/20 01:27:44;;;;;;;10.25;3.72;;;;;;;19.82;43.86;99810.66;10349852;28;20456;-81
2022/07/20 01:32:45;;;;;;;11.88;3.47;;;;;;;19.39;44.93;99806.09;10336064;28;20057;-81
2022/07/20 01:37:47;;;;;;;13.80;3.60;;;;;;;18.95;45.63;99812.19;10334563;28;20054;-81
2022/07/20 01:42:49;;;;;;;8.90;3.40;;;;;;;19.00;45.52;99810.75;10336313;28;20066;-81
2022/07/20 01:47:51;;;;;;;7.00;3.15;;;;;;;19.26;45.31;99814.41;10334880;28;20082;-80
2022/07/20 01:52:52;;;;;;;6.95;3.30;;;;;;;19.34;44.91;99817.13;10350539;28;20068;-81
2022/07/20 01:57:54;;;;;;;11.75;3.75;;;;;;;19.38;45.03;99807.91;10333988;28;20047;-82
2022/07/20 02:02:56;;;;;;;9.07;3.53;;;;;;;19.31;44.91;99812.16;10337510;28;20112;-81
2022/07/20 02:07:58;;;;;;;8.07;3.38;;;;;;;19.09;45.49;99809.91;10340275;28;20922;-82
2022/07/20 02:13:00;;;;;;;9.00;3.80;;;;;;;18.94;45.81;99813.16;10339941;28;20050;-81
2022/07/20 02:18:06;;;;;;;7.40;3.50;;;;;;;18.90;45.96;99807.34;10357001;28;20100;-81
2022/07/20 02:23:10;;;;;;;5.55;3.60;;;;;;;19.02;46.02;99811.47;10355605;28;20839;-81
2022/07/20 02:28:12;;;;;;;6.15;3.55;;;;;;;19.15;45.40;99811.97;10339060;28;20085;-82
2022/07/20 02:33:14;;;;;;;8.90;3.83;;;;;;;19.00;45.56;99812.56;10338781;28;20054;-82
2022/07/20 02:38:15;;;;;;;6.03;3.42;;;;;;;18.83;46.31;99813.38;10338553;28;20046;-81
2022/07/20 02:43:17;;;;;;;10.77;3.80;;;;;;;18.95;45.88;99807.72;10338667;28;20570;-82
2022/07/20 02:48:19;;;;;;;8.68;3.78;;;;;;;18.87;46.19;99802.31;10338000;28;20050;-81
2022/07/20 02:53:21;;;;;;;8.00;4.00;;;;;;;18.92;45.50;99804.53;10339744;28;20054;-81
2022/07/20 02:58:22;;;;;;;11.35;3.58;;;;;;;18.80;45.83;99800.41;10336684;28;20058;-81
2022/07/20 03:03:25;;;;;;;7.88;3.55;;;;;;;18.54;46.50;99801.06;10352958;28;20566;-81
2022/07/20 03:08:27;;;;;;;6.05;3.50;;;;;;;18.25;46.86;99807.44;10352833;28;20050;-81
2022/07/20 03:13:29;;;;;;;7.78;3.83;;;;;;;18.19;47.42;99800.91;10334176;28;20223;-81
2022/07/20 03:18:31;;;;;;;7.55;3.70;;;;;;;18.43;47.16;99811.00;10330586;28;20112;-81
2022/07/20 03:23:32;;;;;;;8.82;3.58;;;;;;;18.57;46.66;99806.09;10348399;28;20057;-82
2022/07/20 03:28:34;;;;;;;11.55;3.80;;;;;;;18.61;46.68;99812.75;10332479;28;21190;-82
2022/07/20 03:33:36;;;;;;;9.93;3.88;;;;;;;18.50;47.52;99809.47;10331783;28;20536;-81
2022/07/20 03:38:38;;;;;;;9.25;3.70;;;;;;;18.27;48.03;99819.56;10331699;28;20463;-81
2022/07/20 03:43:44;;;;;;;8.80;3.70;;;;;;;17.85;48.49;99824.31;10334599;28;20058;-81
2022/07/20 03:48:46;;;;;;;7.43;3.47;;;;;;;17.99;48.12;99830.16;10331629;28;20058;-81
2022/07/20 03:53:48;;;;;;;5.97;3.42;;;;;;;18.21;47.57;99835.19;10334352;28;20053;-81
2022/07/20 03:58:50;;;;;;;8.52;3.80;;;;;;;18.09;48.05;99836.28;10330459;28;20736;-81
2022/07/20 04:03:53;;;;;;;8.48;4.00;;;;;;;17.88;48.50;99838.25;10332663;28;20065;-80
2022/07/20 04:08:55;;;;;;;9.77;3.70;;;;;;;17.81;48.78;99838.78;10330148;28;20448;-81
2022/07/20 04:13:57;;;;;;;7.40;3.65;;;;;;;18.21;48.25;99845.78;10338344;28;20058;-81
2022/07/20 04:18:58;;;;;;;7.60;3.58;;;;;;;18.47;48.03;99836.22;10338381;28;20053;-81
2022/07/20 04:24:00;;;;;;;9.13;3.85;;;;;;;18.48;47.80;99841.38;10355476;28;20050;-81
2022/07/20 04:29:02;;;;;;;8.93;3.90;;;;;;;19.07;47.55;99838.41;10337462;28;20585;-81
2022/07/20 04:34:04;;;;;;;5.32;3.47;;;;;;;21.90;42.05;99832.06;10336730;28;20062;-81
2022/07/20 04:39:06;;;;;;;7.15;3.70;;;;;;;24.15;37.82;99833.03;10336957;28;20050;-81
2022/07/20 04:44:08;;;;;;;8.95;3.50;;;;;;;25.85;34.83;99823.75;10339014;28;20562;-81
2022/07/20 04:49:10;;;;;;;7.75;3.58;;;;;;;27.12;32.33;99816.19;10339293;28;20081;-81
2022/07/20 04:54:12;;;;;;;11.77;3.53;;;;;;;28.42;30.26;99822.84;10337282;28;20050;-82
2022/07/20 04:59:14;;;;;;;7.53;3.47;;;;;;;29.51;28.45;99826.47;10337276;28;20103;-81
2022/07/20 05:04:16;;;;;;;6.00;3.17;;;;;;;30.34;27.27;99823.34;10337837;28;20121;-81
2022/07/20 05:09:18;;;;;;;4.30;2.90;;;;;;;30.90;26.36;99823.22;10351418;28;20064;-81
2022/07/20 05:14:19;;;;;;;7.95;3.17;;;;;;;31.63;25.40;99818.56;10335674;28;20099;-82
2022/07/20 05:19:21;;;;;;;7.20;3.00;;;;;;;32.08;24.69;99822.47;10335685;28;20112;-81
2022/07/20 05:24:23;;;;;;;6.80;3.00;;;;;;;32.35;24.29;99828.25;10336083;28;20065;-81
2022/07/20 05:29:25;;;;;;;5.35;2.92;;;;;;;32.41;24.01;99831.91;10337837;28;20067;-82
2022/07/20 05:34:27;;;;;;;4.90;2.95;;;;;;;32.03;24.20;99833.16;10335188;28;20061;-82
2022/07/20 05:39:29;;;;;;;8.57;3.20;;;;;;;29.63;27.07;99844.44;10336393;28;20085;-81
2022/07/20 05:44:31;;;;;;;7.00;2.88;;;;;;;27.55;29.71;99853.53;10351206;28;20060;-82
2022/07/20 05:49:33;;;;;;;8.35;3.38;;;;;;;26.36;31.37;99857.44;10335728;28;20104;-81
2022/07/20 05:54:35;;;;;;;7.15;3.10;;;;;;;25.61;32.92;99856.28;10334750;28;20108;-82
2022/07/20 05:59:36;;;;;;;8.18;3.30;;;;;;;25.14;34.33;99853.22;10334059;28;20054;-81
2022/07/20 06:04:38;;;;;;;7.97;3.45;;;;;;;24.80;34.87;99851.09;10351137;28;20046;-81
2022/07/20 06:09:40;;;;;;;5.60;3.30;;;;;;;24.71;35.77;99852.19;10333337;28;20051;-81
2022/07/20 06:14:42;;;;;;;7.63;3.65;;;;;;;24.32;36.43;99839.06;10350412;28;20054;-81
2022/07/20 06:19:43;;;;;;;10.27;4.20;;;;;;;23.83;37.20;99841.28;10332524;28;20508;-81
2022/07/20 06:24:45;;;;;;;12.35;3.85;;;;;;;23.84;36.89;99848.28;10350196;28;20397;-81
2022/07/20 06:29:58;;;;;;;7.82;4.28;;;;;;;23.67;38.50;99861.94;10331798;28;20045;-81
2022/07/20 06:35:00;;;;;;;9.52;3.85;;;;;;;23.91;38.18;99870.59;10350041;28;20116;-81
2022/07/20 06:40:02;;;;;;;7.85;3.70;;;;;;;24.13;37.84;99884.97;10331123;28;20050;-81
2022/07/20 06:45:05;;;;;;;12.95;3.85;;;;;;;24.45;35.51;99878.53;10327104;28;20050;-81
2022/07/20 06:50:07;;;;;;;11.52;3.85;;;;;;;24.85;33.98;99880.81;10324210;28;20466;-81
2022/07/20 06:55:10;;;;;;;12.93;4.10;;;;;;;25.15;32.60;99874.44;10333122;28;20050;-80
2022/07/20 07:00:14;;;;;;;11.85;3.80;;;;;;;25.55;32.22;99879.28;10331168;28;20049;-80
2022/07/20 07:05:18;;;;;;;16.90;3.97;;;;;;;25.97;32.08;99875.00;10346062;28;20050;-80
2022/07/20 07:10:26;;;;;;;12.48;4.32;;;;;;;26.25;31.89;99876.72;10329257;28;20057;-81
2022/07/20 07:15:36;;;;;;;12.70;4.22;;;;;;;26.50;31.60;99874.44;10331837;28;20089;-79
2022/07/20 07:20:40;;;;;;;6.82;3.20;;;;;;;26.93;30.92;99880.53;10331440;28;20042;-81
2022/07/20 07:25:43;;;;;;;13.10;3.90;;;;;;;27.22;30.70;99870.38;10325555;28;20459;-80
2022/07/20 07:30:49;;;;;;;6.93;3.35;;;;;;;27.67;29.93;99873.44;10326441;28;20054;-80
2022/07/20 07:35:55;;;;;;;11.38;3.88;;;;;;;27.88;28.96;99859.84;10331815;28;20142;-80
2022/07/20 07:40:58;;;;;;;11.20;3.17;;;;;;;29.48;27.05;99864.63;10331095;28;20927;-80
2022/07/20 07:46:01;;;;;;;10.82;3.55;;;;;;;31.85;24.47;99854.00;10352345;28;20062;-80
2022/07/20 07:51:10;;;;;;;12.52;3.25;;;;;;;33.69;21.94;99861.25;10339428;28;20085;-80
2022/07/20 07:56:13;;;;;;;12.45;4.15;;;;;;;34.35;21.29;99871.34;10352200;28;20430;-80
2022/07/20 08:01:16;;;;;;;17.17;3.63;;;;;;;34.90;20.47;99868.69;10332448;28;20053;-81
2022/07/20 08:06:19;;;;;;;9.35;3.13;;;;;;;35.83;19.31;99860.34;10337890;28;20140;-81
2022/07/20 08:11:24;;;;;;;8.18;3.10;;;;;;;36.52;18.30;99866.63;10335979;28;20109;-78
2022/07/20 08:16:28;;;;;;;12.18;3.60;;;;;;;36.04;18.05;99874.91;10334211;28;20065;-79
2022/07/20 08:21:31;;;;;;;8.13;3.22;;;;;;;36.30;18.19;99876.84;10352096;28;20139;-78
2022/07/20 08:26:36;;;;;;;8.00;3.22;;;;;;;36.50;17.77;99882.44;10330482;28;20054;-79
2022/07/20 08:31:39;;;;;;;7.10;2.97;;;;;;;36.87;17.69;99883.22;10332722;28;20046;-79
2022/07/20 08:36:41;;;;;;;10.98;3.25;;;;;;;37.12;17.51;99889.94;10331914;28;20152;-79
2022/07/20 08:41:44;;;;;;;8.68;3.20;;;;;;;37.31;17.28;99905.56;10333299;28;20090;-78
2022/07/20 08:46:56;;;;;;;8.48;3.20;;;;;;;36.59;17.57;99916.25;10338318;28;20058;-78
2022/07/20 08:51:59;;;;;;;14.88;3.83;;;;;;;36.78;17.91;99911.25;10349152;28;20046;-79
2022/07/20 08:57:17;;;;;;;11.25;3.50;;;;;;;37.18;17.35;99899.78;10332360;28;20096;-79
2022/07/20 09:02:19;;;;;;;;;;;;;;;36.56;18.16;99908.63;10332207;28;20062;-78
2022/07/20 09:07:39;;;;;;;10.48;3.70;;;;;;;36.77;18.21;99899.50;10329887;28;20007;-79
2022/07/20 09:12:58;;;;;;;8.45;3.47;;;;;;;36.57;17.70;99893.91;10344218;28;20049;-79
2022/07/20 09:18:04;;;;;;;6.57;3.45;;;;;;;36.67;17.35;99893.19;10326367;28;20086;-79
2022/07/20 09:23:12;;;;;;;13.50;3.90;;;;;;;36.74;17.93;99894.59;10332108;28;20148;-79
2022/07/20 09:28:18;;;;;;;13.48;5.28;;;;;;;36.55;18.76;99890.63;10329294;28;20780;-79
2022/07/20 09:33:39;;;;;;;17.77;6.15;;;;;;;36.26;19.67;99892.06;10330609;28;20050;-78
2022/07/20 09:38:41;;;;;;;17.50;7.88;;;;;;;35.81;20.41;99888.88;10324292;28;20443;-79
2022/07/20 09:43:46;;;;;;;19.73;7.70;;;;;;;36.01;20.44;99897.22;10328858;28;20060;-78
2022/07/20 09:48:54;;;;;;;16.65;7.70;;;;;;;36.09;20.57;99896.75;10333273;28;20093;-79
2022/07/20 09:54:02;;;;;;;23.60;8.02;;;;;;;35.88;20.39;99908.53;10328529;28;20062;-78
2022/07/20 09:59:07;;;;;;;11.67;8.07;;;;;;;35.89;20.71;99913.75;10344731;28;20054;-78
2022/07/20 10:04:11;;;;;;;17.10;8.20;;;;;;;35.71;20.92;99905.06;10348720;28;20058;-78
2022/07/20 10:09:16;;;;;;;20.70;8.63;;;;;;;35.85;21.39;99917.22;10327205;28;20143;-78
2022/07/20 10:14:23;;;;;;;19.10;9.13;;;;;;;36.09;21.35;99896.75;10330504;28;20552;-78
2022/07/20 10:19:47;;;;;;;19.98;9.60;;;;;;;36.32;20.80;99898.34;10345230;28;20156;-79
2022/07/20 10:25:16;;;;;;;19.30;9.68;;;;;;;35.85;21.21;99884.56;10328287;28;20460;-79
2022/07/20 10:30:19;;;;;;;16.52;8.95;;;;;;;35.40;21.46;99898.47;10344440;28;20061;-78
2022/07/20 10:35:31;;;;;;;18.58;8.07;;;;;;;35.25;21.14;99901.78;10330300;28;20065;-79
2022/07/20 10:46:56;;;;;;;16.13;8.23;;;;;;;35.71;21.08;99891.47;10332645;28;20057;-79
2022/07/20 10:52:32;;;;;;;16.52;8.88;;;;;;;35.22;21.45;99887.88;10325148;28;20046;-79
2022/07/20 10:57:36;;;;;;;17.65;9.15;;;;;;;35.20;21.80;99890.03;10328568;28;20089;-79
2022/07/20 11:02:39;;;;;;;18.83;8.70;;;;;;;35.53;21.25;99889.09;10302988;28;20097;-79
2022/07/20 11:07:41;;;;;;;16.90;9.05;;;;;;;35.61;21.30;99894.09;10303242;28;20055;-79
2022/07/20 11:12:58;;;;;;;19.52;9.30;;;;;;;35.58;21.21;99891.84;10303866;28;20546;-78
2022/07/20 11:18:09;;;;;;;23.67;8.90;;;;;;;35.52;20.42;99888.25;10307050;28;20048;-78
2022/07/20 11:23:13;;;;;;;16.13;8.02;;;;;;;34.84;21.15;99885.13;10311424;28;20120;-78
2022/07/20 11:28:22;;;;;;;14.45;8.05;;;;;;;34.70;21.14;99886.56;10297240;28;20054;-78
2022/07/20 11:33:30;;;;;;;15.32;8.48;;;;;;;34.47;21.83;99877.56;10306937;28;20054;-79
2022/07/20 11:38:38;;;;;;;21.77;9.75;;;;;;;34.58;22.38;99879.38;10295555;28;20097;-79
2022/07/20 11:43:44;;;;;;;14.18;7.80;;;;;;;34.63;21.28;99878.63;10294241;28;20700;-79
2022/07/20 11:48:59;;;;;;;19.88;8.50;;;;;;;34.50;21.50;99871.63;10312082;28;20046;-79
2022/07/20 11:54:23;;;;;;;20.17;9.63;;;;;;;34.42;22.60;99863.91;10312095;28;20149;-79
2022/07/20 11:59:26;;;;;;;18.00;9.48;;;;;;;34.14;22.71;99855.00;10306491;28;20528;-79
2022/07/20 12:04:33;;;;;;;19.95;9.65;;;;;;;34.46;23.05;99840.63;10334926;28;20323;-79
2022/07/20 12:09:35;;;;;;;14.00;9.80;;;;;;;34.60;23.08;99846.50;10355865;28;20053;-79
2022/07/20 12:15:12;;;;;;;17.30;9.07;;;;;;;34.87;22.00;99852.06;10333768;28;20105;-79
2022/07/20 12:20:17;;;;;;;18.55;9.55;;;;;;;34.79;22.81;99844.31;10350784;28;20058;-79
2022/07/20 12:25:22;;;;;;;18.48;9.20;;;;;;;34.80;22.53;99837.81;10335811;28;20058;-79
2022/07/20 12:30:37;;;;;;;14.13;9.20;;;;;;;34.93;22.08;99830.16;10333907;28;20473;-79
2022/07/20 12:35:46;;;;;;;17.35;9.02;;;;;;;34.76;22.47;99836.66;10338338;28;20054;-79
2022/07/20 12:40:49;;;;;;;19.15;8.80;;;;;;;34.85;22.31;99838.72;10351560;28;20072;-78
2022/07/20 12:45:51;;;;;;;15.45;8.15;;;;;;;35.00;22.15;99838.94;10352571;28;20100;-79
2022/07/20 12:50:53;;;;;;;15.38;8.98;;;;;;;34.96;22.04;99828.84;10331418;28;20049;-78
2022/07/20 12:55:59;;;;;;;19.52;9.30;;;;;;;34.53;22.50;99845.88;10334343;28;20058;-78
2022/07/20 13:01:02;;;;;;;17.17;9.45;;;;;;;34.47;23.20;99838.69;10335075;28;20043;-79
2022/07/20 13:06:04;;;;;;;19.77;9.43;;;;;;;34.52;23.58;99825.19;10348254;28;20054;-79
2022/07/20 13:11:06;;;;;;;15.50;9.90;;;;;;;34.55;24.20;99835.59;10334452;28;20061;-79
2022/07/20 13:16:08;;;;;;;18.42;9.98;;;;;;;34.85;23.97;99840.59;10331019;28;20058;-78
2022/07/20 13:21:11;;;;;;;22.40;9.60;;;;;;;34.77;23.98;99838.31;10328131;28;20096;-78
2022/07/20 13:26:13;;;;;;;16.75;9.32;;;;;;;34.68;24.61;99840.66;10333468;28;20459;-78
2022/07/20 13:31:16;;;;;;;20.13;9.45;;;;;;;34.71;24.00;99825.75;10332949;28;20117;-78
2022/07/20 13:36:40;;;;;;;20.27;9.32;;;;;;;34.73;24.21;99821.72;10344639;28;20129;-78
2022/07/20 13:41:42;;;;;;;15.40;9.43;;;;;;;34.53;24.20;99826.88;10331282;28;20050;-79
2022/07/20 13:46:47;;;;;;;19.95;9.73;;;;;;;34.38;24.77;99837.47;10335179;28;20097;-78
2022/07/20 13:51:49;;;;;;;16.48;9.32;;;;;;;34.09;24.66;99831.31;10333887;28;20157;-78
2022/07/20 13:57:10;;;;;;;16.40;8.98;;;;;;;34.27;24.64;99836.47;10333295;28;20148;-78
2022/07/20 14:02:12;;;;;;;16.88;9.35;;;;;;;34.57;24.59;99841.59;10334061;28;20085;-78
2022/07/20 14:07:14;;;;;;;19.20;9.38;;;;;;;34.36;24.54;99843.16;10348538;28;20062;-78
2022/07/20 14:12:16;;;;;;;16.77;9.27;;;;;;;34.08;24.95;99854.09;10334054;28;20396;-78
2022/07/20 14:17:18;;;;;;;15.73;8.60;;;;;;;34.05;24.77;99840.19;10333670;28;20111;-78
2022/07/20 14:22:20;;;;;;;16.98;9.13;;;;;;;34.04;25.25;99836.63;10333906;28;20152;-78
2022/07/20 14:27:22;;;;;;;16.73;9.07;;;;;;;33.93;25.41;99840.25;10330143;28;20439;-79
2022/07/20 14:32:24;;;;;;;14.80;9.88;;;;;;;33.91;25.30;99841.53;10333752;28;20054;-79
2022/07/20 14:37:26;;;;;;;18.42;9.35;;;;;;;33.81;25.37;99843.03;10333947;28;20530;-78
2022/07/20 14:42:27;;;;;;;15.07;8.93;;;;;;;33.41;25.99;99852.25;10331740;28;20085;-79
2022/07/20 14:47:29;;;;;;;16.75;9.30;;;;;;;33.12;26.47;99858.72;10333940;28;20108;-78
2022/07/20 14:52:31;;;;;;;14.88;9.07;;;;;;;33.09;26.61;99868.13;10348478;28;20104;-78
2022/07/20 14:57:33;;;;;;;17.00;8.90;;;;;;;32.86;26.93;99866.25;10333683;28;20463;-78
2022/07/20 15:02:35;;;;;;;16.92;9.52;;;;;;;32.72;26.52;99862.16;10330291;28;20120;-78
2022/07/20 15:07:38;;;;;;;14.50;8.90;;;;;;;32.75;27.00;99863.56;10346118;28;20054;-79
2022/07/20 15:12:39;;;;;;;18.15;9.15;;;;;;;32.80;27.75;99855.56;10333232;28;20439;-79
2022/07/20 15:17:41;;;;;;;18.25;8.95;;;;;;;32.94;27.84;99846.94;10327482;28;20522;-78
2022/07/20 15:22:43;;;;;;;15.25;8.73;;;;;;;33.41;26.86;99823.25;10331862;28;20054;-79
2022/07/20 15:27:45;;;;;;;18.88;8.88;;;;;;;33.71;26.01;99831.16;10331912;28;20057;-78
2022/07/20 15:32:47;;;;;;;15.13;8.27;;;;;;;33.91;25.72;99823.38;10345698;28;20046;-78
2022/07/20 15:37:49;;;;;;;17.85;8.90;;;;;;;34.07;25.51;99816.31;10331333;28;20090;-79
2022/07/20 15:42:50;;;;;;;13.40;8.50;;;;;;;33.38;25.73;99804.75;10333224;28;20054;-79
2022/07/20 15:47:56;;;;;;;14.20;8.30;;;;;;;33.16;26.45;99803.78;10330433;28;20500;-78
2022/07/20 15:52:57;;;;;;;17.92;8.90;;;;;;;33.14;26.73;99799.69;10344161;28;20054;-78
2022/07/20 15:58:01;;;;;;;16.13;8.55;;;;;;;33.34;26.50;99789.22;10325188;28;20500;-79
2022/07/20 16:03:03;;;;;;;19.27;8.40;;;;;;;33.31;26.47;99789.72;10327969;28;20108;-79
2022/07/20 16:08:05;;;;;;;15.10;7.60;;;;;;;32.95;26.99;99807.13;10350312;28;20054;-79
2022/07/20 16:13:07;;;;;;;14.05;7.35;;;;;;;32.70;27.18;99798.44;10352787;28;20839;-78
2022/07/20 16:18:11;;;;;;;15.00;7.38;;;;;;;32.53;26.88;99808.38;10338934;28;20081;-78
2022/07/20 16:23:14;;;;;;;16.58;7.13;;;;;;;32.11;27.55;99807.63;10338220;28;20053;-78
2022/07/20 16:28:17;;;;;;;16.00;6.65;;;;;;;31.88;27.61;99800.28;10351221;28;20761;-79
2022/07/20 16:33:19;;;;;;;15.75;6.80;;;;;;;31.51;28.39;99790.69;10338532;28;20053;-78
2022/07/20 16:38:21;;;;;;;10.63;6.15;;;;;;;31.23;28.88;99812.84;10339579;28;20100;-79
2022/07/20 16:43:23;;;;;;;13.15;5.88;;;;;;;31.12;29.27;99815.50;10338438;28;20054;-79
2022/07/20 16:48:27;;;;;;;12.25;6.28;;;;;;;31.16;29.31;99822.09;10337621;28;20058;-78
2022/07/20 16:53:29;;;;;;;16.25;6.75;;;;;;;31.31;29.28;99798.22;10331419;28;20065;-79
2022/07/20 17:05:07;;;;;;;12.50;6.45;;;;;;;31.28;29.35;99820.28;10337146;28;20046;-78
2022/07/20 17:10:09;;;;;;;11.07;6.10;;;;;;;31.06;29.53;99811.84;10335629;28;20050;-78
2022/07/20 17:15:11;;;;;;;11.73;6.90;;;;;;;30.85;30.32;99812.25;10335327;28;20054;-78
2022/07/20 17:20:13;;;;;;;11.50;6.15;;;;;;;30.39;30.68;99814.59;10330769;28;20049;-79
2022/07/20 17:25:15;;;;;;;12.43;6.93;;;;;;;30.40;30.89;99805.44;10335865;28;20066;-79
2022/07/20 17:30:17;;;;;;;10.57;6.82;;;;;;;30.49;30.78;99820.34;10327400;28;20058;-79
2022/07/20 17:35:19;;;;;;;17.63;6.30;;;;;;;30.42;30.67;99828.47;10333218;28;20120;-79
2022/07/20 17:40:21;;;;;;;11.57;6.20;;;;;;;30.31;31.00;99829.22;10331818;28;20166;-79
2022/07/20 17:45:23;;;;;;;13.27;6.32;;;;;;;30.17;31.14;99835.75;10336179;28;20115;-79
2022/07/20 17:50:25;;;;;;;11.68;5.72;;;;;;;30.16;31.38;99826.03;10331485;28;20547;-80
2022/07/20 17:55:27;;;;;;;13.50;6.20;;;;;;;30.00;31.51;99844.63;10329225;28;20236;-79
2022/07/20 18:00:29;;;;;;;9.50;5.70;;;;;;;29.74;31.94;99865.28;10335385;28;20053;-80
2022/07/20 18:05:37;;;;;;;;;;;;;;;29.10;33.07;99867.25;10342395;28;20049;-79
2022/07/20 18:10:39;;;;;;;15.50;5.68;;;;;;;29.35;35.09;99875.44;10333123;28;19925;-79
2022/07/20 18:15:41;;;;;;;10.80;6.03;;;;;;;29.18;34.38;99872.38;10333455;28;20081;-79
2022/07/20 18:20:43;;;;;;;12.85;5.90;;;;;;;29.02;34.42;99864.78;10333462;28;20105;-79
2022/07/20 18:25:45;;;;;;;10.27;6.25;;;;;;;28.95;34.50;99867.47;10347439;28;20487;-80
2022/07/20 18:30:47;;;;;;;11.25;5.85;;;;;;;28.91;35.14;99863.56;10330522;28;20046;-79
2022/07/20 18:35:49;;;;;;;13.00;6.10;;;;;;;28.87;35.14;99851.56;10343949;28;20060;-79
2022/07/20 18:40:50;;;;;;;13.73;6.25;;;;;;;28.76;34.98;99845.97;10332745;28;20139;-81
2022/07/20 18:46:01;;;;;;;12.43;6.13;;;;;;;28.58;34.86;99851.19;10347049;28;20520;-81
2022/07/20 18:51:11;;;;;;;9.15;5.85;;;;;;;28.47;35.23;99868.78;10327469;28;20066;-80
2022/07/20 18:56:14;;;;;;;18.10;6.40;;;;;;;28.34;35.70;99855.34;10330832;28;20583;-80
2022/07/20 19:01:17;;;;;;;12.32;5.90;;;;;;;28.06;36.23;99842.09;10324400;28;20523;-80
2022/07/20 19:06:20;;;;;;;15.38;6.72;;;;;;;27.80;40.26;99873.47;10332843;28;20053;-80
2022/07/20 19:11:22;;;;;;;18.05;7.13;;;;;;;27.61;43.35;99890.34;10331547;28;20058;-81
2022/07/20 19:16:25;;;;;;;12.55;6.70;;;;;;;27.40;45.20;99915.50;10328709;28;20045;-80
2022/07/20 19:21:29;;;;;;;12.05;7.00;;;;;;;27.23;45.70;99941.84;10346187;28;20066;-77
2022/07/20 19:26:31;;;;;;;11.32;6.85;;;;;;;27.00;45.69;99940.44;10346045;28;20903;-79
2022/07/20 19:31:34;;;;;;;12.00;7.47;;;;;;;26.85;47.04;99959.34;10328552;28;20041;-77
2022/07/20 19:36:38;;;;;;;15.25;6.70;;;;;;;26.45;46.40;99978.78;10333512;28;20057;-77
2022/07/20 19:41:40;;;;;;;12.40;7.50;;;;;;;26.40;48.30;99970.50;10333282;28;20054;-77
2022/07/20 19:46:43;;;;;;;12.52;7.68;;;;;;;26.24;49.92;99981.47;10336791;28;20041;-77
2022/07/20 19:51:45;;;;;;;11.48;7.55;;;;;;;25.76;49.86;99972.25;10354444;28;20045;-77
2022/07/20 19:56:47;;;;;;;14.18;9.10;;;;;;;24.95;51.95;99983.03;10336463;28;20105;-78
2022/07/20 20:01:48;;;;;;;13.55;8.98;;;;;;;24.83;54.48;100000.56;10335194;28;20057;-78
2022/07/20 20:06:50;;;;;;;12.13;9.13;;;;;;;25.00;55.36;100026.97;10337850;28;20061;-77
2022/07/20 20:11:53;;;;;;;11.45;7.57;;;;;;;25.03;54.11;100045.34;10337133;28;20046;-77
2022/07/20 20:16:55;;;;;;;14.70;8.75;;;;;;;25.01;54.47;100059.91;10337081;28;20080;-77
2022/07/20 20:21:57;;;;;;;16.48;9.50;;;;;;;24.73;55.42;100070.38;10337155;28;20069;-77
2022/07/20 20:26:59;;;;;;;16.38;10.05;;;;;;;24.26;55.87;100077.66;10337458;28;20050;-77
2022/07/20 20:32:02;;;;;;;13.98;8.85;;;;;;;23.51;57.18;100072.94;10337758;28;20507;-77
2022/07/20 20:37:04;;;;;;;16.05;10.57;;;;;;;23.12;59.54;100065.63;10335997;28;20049;-77
2022/07/20 20:42:06;;;;;;;20.40;10.20;;;;;;;23.26;60.49;100077.44;10336448;28;20077;-77
2022/07/20 20:47:11;;;;;;;15.13;9.68;;;;;;;23.26;59.53;100077.44;10337308;28;20107;-77
2022/07/20 20:52:13;;;;;;;17.55;10.02;;;;;;;22.90;59.56;100065.47;10330582;28;20504;-77
2022/07/20 20:57:16;;;;;;;15.57;10.32;;;;;;;23.03;59.51;100049.78;10334081;28;20054;-77
2022/07/20 21:02:18;;;;;;;17.08;10.85;;;;;;;23.03;61.72;100050.63;10331983;28;20061;-77
2022/07/20 21:07:20;;;;;;;15.27;11.05;;;;;;;23.23;62.04;100051.09;10335592;28;20456;-77
2022/07/20 21:12:23;;;;;;;21.45;11.27;;;;;;;23.36;61.46;100064.75;10334462;28;20049;-77
2022/07/20 21:17:25;;;;;;;17.92;12.82;;;;;;;23.49;61.97;100073.91;10336246;28;20053;-77
2022/07/20 21:22:27;;;;;;;18.33;12.80;;;;;;;23.53;61.42;100090.44;10336870;28;20989;-76
2022/07/20 21:27:29;;;;;;;16.17;12.32;;;;;;;23.50;61.63;100080.09;10352907;28;20050;-77
2022/07/20 21:32:31;;;;;;;20.38;12.65;;;;;;;23.32;61.38;100076.78;10333604;28;20058;-76
2022/07/20 21:37:33;;;;;;;19.38;11.40;;;;;;;23.14;62.01;100098.31;10335957;28;20062;-77
2022/07/20 21:42:35;;;;;;;16.83;11.25;;;;;;;23.07;62.29;100117.81;10332814;28;20530;-77
2022/07/20 21:48:11;;;;;;;17.17;10.40;;;;;;;23.00;62.79;100128.34;10332376;28;20094;-77
2022/07/20 21:53:13;;;;;;;17.98;11.55;;;;;;;23.22;61.94;100138.34;10332988;28;20050;-77
2022/07/20 21:58:15;;;;;;;18.45;10.85;;;;;;;23.24;61.52;100127.50;10333519;28;20085;-77
2022/07/20 22:03:16;;;;;;;16.73;11.52;;;;;;;23.16;61.31;100139.00;10332249;28;20053;-77
2022/07/20 22:08:19;;;;;;;15.65;12.02;;;;;;;22.82;61.69;100137.50;10331256;28;20066;-77
2022/07/20 22:13:21;;;;;;;14.35;10.77;;;;;;;22.68;61.96;100136.25;10331642;28;20069;-76
2022/07/20 22:18:23;;;;;;;19.60;11.77;;;;;;;22.37;63.37;100138.66;10331694;28;20058;-77
2022/07/20 22:23:32;;;;;;;19.35;12.68;;;;;;;22.31;62.86;100141.97;10330009;28;20152;-77
2022/07/20 22:28:35;;;;;;;14.80;10.93;;;;;;;22.31;62.47;100110.00;10330175;28;20382;-77
2022/07/20 22:33:36;;;;;;;16.00;12.15;;;;;;;21.98;63.21;100078.91;10329777;28;20054;-77
2022/07/20 22:38:38;;;;;;;17.20;12.40;;;;;;;22.17;64.07;100102.63;10332342;28;20105;-76
2022/07/20 22:43:40;;;;;;;15.10;11.93;;;;;;;22.45;64.03;100085.38;10329141;28;20057;-76
2022/07/20 22:48:44;;;;;;;18.73;13.32;;;;;;;22.74;63.34;100073.47;10329720;28;20057;-76
2022/07/20 22:53:46;;;;;;;22.27;13.50;;;;;;;22.98;63.20;100052.16;10326522;28;20050;-77
2022/07/20 22:58:48;;;;;;;18.35;12.73;;;;;;;22.94;61.97;100021.47;10330494;28;20533;-76
2022/07/20 23:03:50;;;;;;;16.35;11.73;;;;;;;22.73;62.13;99999.78;10330862;28;20108;-76
2022/07/20 23:09:18;;;;;;;17.00;11.85;;;;;;;22.73;63.99;100023.78;10330337;28;20061;-76
2022/07/20 23:14:20;;;;;;;15.50;12.02;;;;;;;22.82;63.01;100033.47;10328832;28;20077;-77
2022/07/20 23:19:21;;;;;;;19.58;13.32;;;;;;;22.74;63.24;100049.50;10328670;28;20585;-76
2022/07/20 23:24:23;;;;;;;16.33;11.60;;;;;;;22.54;63.28;100041.75;10345165;28;20058;-76
2022/07/20 23:29:25;;;;;;;13.07;11.30;;;;;;;22.50;63.13;100023.59;10332161;28;20512;-76